Time;durP1;ratioP1;P1;durP2;ratioP2;P2;SDS_P1;SDS_P2;PMS_P1;PMS_P2;Temp;Humidity;BMP_temperature;BMP_pressure;BME280_temperature;BME280_humidity;BME280_pressure;Samples;Min_cycle;Max_cycle;Signal;HPM_P1;HPM_P2
2023/05/08 00:00:55;;;;;;;;;;;;;;;6.30;78.70;100000.48;135545;1280;22667;-65
2023/05/08 00:03:59;;;;;;;;;;;;;;;6.20;78.73;100000.52;131412;1280;5370696;-64
2023/05/08 00:07:01;;;;;;;;;;;;;;;6.11;79.40;100001.25;135239;1280;22530;-65
2023/05/08 00:10:04;;;;;;;;;;;;;;;6.10;79.13;100000.05;135575;1262;22493;-63
2023/05/08 00:13:07;;;;;;;;;;;;;;;6.11;78.87;100000.90;135368;1271;25214;-63
2023/05/08 00:16:11;;;;;;;;;;;;;;;6.12;78.50;100003.66;135566;1280;22500;-64
2023/05/08 00:19:14;;;;;;;;;;;;;;;6.13;78.40;100003.11;135514;1280;22516;-65
2023/05/08 00:22:17;;;;;;;;;;;;;;;6.22;77.64;100003.77;135552;1280;22507;-65
2023/05/08 00:25:20;;;;;;;;;;;;;;;6.25;77.33;100002.99;135567;1280;22487;-64
2023/05/08 00:28:23;;;;;;;;;;;;;;;6.22;77.22;100005.68;135537;1280;22508;-66
2023/05/08 00:31:26;;;;;;;;;;;;;;;6.10;77.72;100006.30;135505;1280;22444;-66
2023/05/08 00:34:29;;;;;;;;;;;;;;;6.01;77.58;100011.38;135515;1280;22518;-65
2023/05/08 00:37:32;;;;;;;;;;;;;;;5.94;78.22;100015.88;135565;1280;22512;-65
2023/05/08 00:40:43;;;;;;;;;;;;;;;5.86;78.47;100015.17;135360;1280;25405;-64
2023/05/08 00:43:46;;;;;;;;;;;;;;;5.81;79.47;100017.19;135521;1280;22521;-64
2023/05/08 00:46:49;;;;;;;;;;;;;;;5.85;78.57;100020.06;135557;1280;22507;-63
2023/05/08 00:49:52;;;;;;;;;;;;;;;5.87;78.24;100020.88;135562;1280;22508;-65
2023/05/08 00:52:55;;;;;;;;;;;;;;;5.84;78.23;100021.29;135361;1280;22529;-63
2023/05/08 00:55:59;;;;;;;;;;;;;;;5.80;78.19;100025.55;135563;1280;22538;-69
2023/05/08 00:59:01;;;;;;;;;;;;;;;5.73;78.90;100022.23;135512;1280;22612;-64
2023/05/08 01:02:04;;;;;;;;;;;;;;;5.80;78.55;100025.73;135555;1277;22517;-65
2023/05/08 01:05:08;;;;;;;;;;;;;;;5.85;77.16;100027.00;135551;1280;22545;-67
2023/05/08 01:08:11;;;;;;;;;;;;;;;5.88;77.55;100030.91;135448;1280;22501;-68
2023/05/08 01:11:14;;;;;;;;;;;;;;;5.86;77.08;100030.44;135493;1280;22508;-66
2023/05/08 01:14:16;;;;;;;;;;;;;;;5.87;76.92;100033.90;135331;1280;25336;-63
2023/05/08 01:17:19;;;;;;;;;;;;;;;5.87;76.45;100034.42;135374;1280;22515;-64
2023/05/08 01:20:22;;;;;;;;;;;;;;;5.84;76.54;100031.55;135526;1280;25291;-64
2023/05/08 01:23:25;;;;;;;;;;;;;;;5.85;75.40;100029.95;135340;1280;24802;-63
2023/05/08 01:26:28;;;;;;;;;;;;;;;5.78;75.49;100027.34;135508;1280;22583;-63
2023/05/08 01:29:30;;;;;;;;;;;;;;;5.71;75.25;100033.05;135336;1280;22504;-66
2023/05/08 01:32:33;;;;;;;;;;;;;;;5.64;75.97;100039.95;135400;1280;22522;-63
2023/05/08 01:35:36;;;;;;;;;;;;;;;5.54;76.12;100041.90;135520;1280;22518;-64
2023/05/08 01:38:39;;;;;;;;;;;;;;;5.40;76.16;100039.74;135500;1280;22500;-62
2023/05/08 01:41:41;;;;;;;;;;;;;;;5.26;77.13;100039.88;135223;1280;22519;-63
2023/05/08 01:44:44;;;;;;;;;;;;;;;5.19;76.61;100041.55;135496;1280;22521;-63
2023/05/08 01:47:47;;;;;;;;;;;;;;;5.01;77.23;100044.16;135486;1280;22508;-67
2023/05/08 01:50:50;;;;;;;;;;;;;;;4.95;77.24;100047.91;135475;1280;22516;-67
2023/05/08 01:53:53;;;;;;;;;;;;;;;4.94;77.49;100050.52;135494;1280;22560;-66
2023/05/08 01:56:56;;;;;;;;;;;;;;;4.85;77.28;100049.27;135500;1280;22518;-64
2023/05/08 01:59:59;;;;;;;;;;;;;;;4.78;78.28;100054.27;135518;1280;22510;-64
2023/05/08 02:03:02;;;;;;;;;;;;;;;4.70;78.08;100052.69;135521;1280;22527;-67
2023/05/08 02:06:05;;;;;;;;;;;;;;;4.62;78.44;100053.85;135486;1280;22511;-64
2023/05/08 02:09:08;;;;;;;;;;;;;;;4.62;77.41;100056.45;135507;1280;22533;-65
2023/05/08 02:12:11;;;;;;;;;;;;;;;4.52;77.02;100058.52;135431;1280;22576;-68
2023/05/08 02:15:14;;;;;;;;;;;;;;;4.43;76.03;100061.27;135527;1280;22549;-63
2023/05/08 02:18:17;;;;;;;;;;;;;;;4.30;76.16;100061.98;135472;1280;25831;-63
2023/05/08 02:21:20;;;;;;;;;;;;;;;4.26;76.42;100057.72;135515;1280;22500;-64
2023/05/08 02:24:24;;;;;;;;;;;;;;;4.24;76.57;100065.20;135491;1280;22515;-62
2023/05/08 02:27:27;;;;;;;;;;;;;;;4.21;76.01;100061.43;135388;1280;22512;-68
2023/05/08 02:30:31;;;;;;;;;;;;;;;4.20;75.86;100066.13;135509;1280;22519;-67
2023/05/08 02:33:33;;;;;;;;;;;;;;;4.23;75.71;100068.84;135442;1280;22606;-67
2023/05/08 02:36:36;;;;;;;;;;;;;;;4.14;76.10;100068.29;135352;1280;22507;-64
2023/05/08 02:39:39;;;;;;;;;;;;;;;4.06;75.94;100074.46;135372;1280;22500;-67
2023/05/08 02:42:43;;;;;;;;;;;;;;;4.04;75.96;100069.14;135316;1280;22501;-65
2023/05/08 02:45:46;;;;;;;;;;;;;;;3.96;75.82;100072.52;135492;1280;22507;-63
2023/05/08 02:48:48;;;;;;;;;;;;;;;3.88;76.05;100074.36;135521;1258;22619;-63
2023/05/08 02:51:50;;;;;;;;;;;;;;;3.82;76.34;100073.76;135537;1280;22511;-68
2023/05/08 02:54:53;;;;;;;;;;;;;;;3.87;76.34;100078.02;135369;1280;25409;-64
2023/05/08 02:57:56;;;;;;;;;;;;;;;3.87;76.06;100084.07;135504;1280;22527;-64
2023/05/08 03:00:59;;;;;;;;;;;;;;;3.84;76.26;100088.25;135514;1280;22501;-65
2023/05/08 03:04:02;;;;;;;;;;;;;;;3.82;76.56;100087.08;135345;1280;22524;-67
2023/05/08 03:07:05;;;;;;;;;;;;;;;3.75;77.37;100090.80;135516;1259;22506;-63
2023/05/08 03:13:46;;;;;;;;;;;;;;;3.93;77.85;100090.57;135488;1280;22507;-64
2023/05/08 03:16:49;;;;;;;;;;;;;;;4.04;77.60;100089.89;135457;1280;22504;-64
2023/05/08 03:19:51;;;;;;;;;;;;;;;4.13;77.76;100088.20;135545;1280;22507;-64
2023/05/08 03:22:54;;;;;;;;;;;;;;;4.27;78.34;100090.42;135335;1280;22515;-64
2023/05/08 03:25:58;;;;;;;;;;;;;;;4.37;78.56;100090.12;135534;1280;22505;-64
2023/05/08 03:29:01;;;;;;;;;;;;;;;4.61;78.45;100092.31;135465;1280;22573;-67
2023/05/08 03:32:03;;;;;;;;;;;;;;;4.77;78.72;100094.66;135366;1259;22519;-66
2023/05/08 03:35:06;;;;;;;;;;;;;;;4.95;79.33;100090.37;135521;1280;22509;-69
2023/05/08 03:38:09;;;;;;;;;;;;;;;5.10;78.43;100089.23;135512;1280;22568;-65
2023/05/08 03:41:13;;;;;;;;;;;;;;;5.30;78.71;100087.83;135381;1280;22523;-65
2023/05/08 03:44:16;;;;;;;;;;;;;;;5.57;78.74;100086.42;135460;1280;22518;-65
2023/05/08 03:47:19;;;;;;;;;;;;;;;5.75;77.72;100087.44;135530;1280;22511;-64
2023/05/08 03:50:22;;;;;;;;;;;;;;;5.92;77.55;100090.56;135472;1280;22507;-65
2023/05/08 03:53:26;;;;;;;;;;;;;;;6.03;77.10;100090.35;135485;1280;22981;-66
2023/05/08 03:56:29;;;;;;;;;;;;;;;6.05;76.59;100091.86;135318;1280;22504;-66
2023/05/08 03:59:32;;;;;;;;;;;;;;;6.05;76.99;100091.36;135550;1280;22529;-67
2023/05/08 04:02:35;;;;;;;;;;;;;;;6.23;77.53;100092.15;135585;1280;22497;-70
2023/05/08 04:05:38;;;;;;;;;;;;;;;6.40;77.76;100094.89;135532;1280;22508;-67
2023/05/08 04:08:42;;;;;;;;;;;;;;;6.50;77.59;100096.56;135535;1280;22498;-65
2023/05/08 04:11:44;;;;;;;;;;;;;;;6.55;77.87;100094.36;135453;1280;22519;-69
2023/05/08 04:14:47;;;;;;;;;;;;;;;6.69;77.81;100098.73;135360;1264;23341;-70
2023/05/08 04:17:50;;;;;;;;;;;;;;;6.65;78.64;100102.13;135532;1280;22522;-68
2023/05/08 04:20:53;;;;;;;;;;;;;;;6.68;79.57;100106.55;135557;1280;22511;-64
2023/05/08 04:23:56;;;;;;;;;;;;;;;6.77;81.02;100110.50;135334;1267;25468;-66
2023/05/08 04:26:58;;;;;;;;;;;;;;;7.04;80.12;100113.85;135332;1280;22500;-64
2023/05/08 04:30:02;;;;;;;;;;;;;;;7.20;80.28;100111.18;135593;1280;22493;-64
2023/05/08 04:33:12;;;;;;;;;;;;;;;7.27;80.20;100116.52;135554;1280;22513;-68
2023/05/08 04:36:16;;;;;;;;;;;;;;;7.41;79.83;100120.00;135491;1280;22627;-64
2023/05/08 04:39:21;;;;;;;;;;;;;;;7.57;79.45;100125.31;135534;1280;22500;-63
2023/05/08 04:42:24;;;;;;;;;;;;;;;7.78;79.12;100125.91;135521;1280;22564;-66
2023/05/08 04:45:28;;;;;;;;;;;;;;;8.08;78.31;100131.67;135570;1280;22540;-65
2023/05/08 04:48:34;;;;;;;;;;;;;;;8.38;78.14;100132.52;135472;1280;22493;-67
2023/05/08 04:51:37;;;;;;;;;;;;;;;8.65;76.91;100142.66;135575;1279;22500;-63
2023/05/08 04:54:44;;;;;;;;;;;;;;;8.99;76.99;100141.93;135362;1280;22623;-66
2023/05/08 04:57:46;;;;;;;;;;;;;;;9.31;76.37;100146.77;135510;1262;22613;-66
2023/05/08 05:00:49;;;;;;;;;;;;;;;9.57;74.53;100146.91;135582;1262;22510;-65
2023/05/08 05:03:52;;;;;;;;;;;;;;;9.57;73.01;100147.27;135564;1280;22501;-64
2023/05/08 05:06:55;;;;;;;;;;;;;;;9.83;72.85;100152.44;135349;1280;22504;-64
2023/05/08 05:10:05;;;;;;;;;;;;;;;9.95;71.31;100156.04;135551;1280;22500;-65
2023/05/08 05:13:08;;;;;;;;;;;;;;;10.08;70.55;100160.06;135577;1280;22509;-64
2023/05/08 05:16:13;;;;;;;;;;;;;;;10.23;68.80;100157.59;135219;1280;22507;-66
2023/05/08 05:19:17;;;;;;;;;;;;;;;10.44;69.36;100163.99;135556;1280;22521;-64
2023/05/08 05:22:21;;;;;;;;;;;;;;;10.86;68.31;100160.90;135568;1280;22560;-63
2023/05/08 05:25:24;;;;;;;;;;;;;;;11.11;65.35;100160.06;135547;1280;22645;-67
2023/05/08 05:28:28;;;;;;;;;;;;;;;11.25;65.74;100162.12;135507;1280;22517;-66
2023/05/08 05:31:31;;;;;;;;;;;;;;;11.27;63.10;100159.04;135568;1280;22512;-64
2023/05/08 05:34:34;;;;;;;;;;;;;;;11.37;62.43;100158.45;135614;1279;22490;-66
2023/05/08 05:37:38;;;;;;;;;;;;;;;11.50;62.15;100166.46;135563;1280;22523;-65
2023/05/08 05:40:41;;;;;;;;;;;;;;;11.47;61.61;100163.63;135558;1280;22500;-66
2023/05/08 05:43:45;;;;;;;;;;;;;;;11.48;62.35;100166.73;135588;1280;22497;-68
2023/05/08 05:46:49;;;;;;;;;;;;;;;11.58;62.11;100168.23;135551;1280;22521;-64
2023/05/08 05:49:52;;;;;;;;;;;;;;;11.92;64.02;100169.71;135290;1280;22522;-67
2023/05/08 05:52:56;;;;;;;;;;;;;;;12.37;61.68;100165.38;135435;1280;22512;-64
2023/05/08 05:55:59;;;;;;;;;;;;;;;12.62;60.60;100168.42;135601;1280;22500;-65
2023/05/08 05:59:03;;;;;;;;;;;;;;;12.69;57.56;100172.11;135554;1280;22560;-68
2023/05/08 06:02:06;;;;;;;;;;;;;;;12.46;55.92;100166.05;135467;1280;22497;-64
2023/05/08 06:05:10;;;;;;;;;;;;;;;12.56;57.41;100169.94;135605;1280;22494;-66
2023/05/08 06:08:15;;;;;;;;;;;;;;;12.66;56.01;100173.33;135560;1280;22526;-65
2023/05/08 06:11:18;;;;;;;;;;;;;;;12.82;56.91;100175.88;135583;1280;25214;-65
2023/05/08 06:14:22;;;;;;;;;;;;;;;13.24;57.15;100175.58;135630;1280;22523;-67
2023/05/08 06:17:26;;;;;;;;;;;;;;;13.53;56.82;100176.23;135565;1280;22511;-64
2023/05/08 06:20:31;;;;;;;;;;;;;;;13.82;55.68;100167.67;135577;1280;22518;-69
2023/05/08 06:23:35;;;;;;;;;;;;;;;14.07;54.38;100167.04;135595;1280;22523;-70
2023/05/08 06:26:38;;;;;;;;;;;;;;;13.99;51.32;100164.86;135462;1280;22497;-68
2023/05/08 06:29:41;;;;;;;;;;;;;;;14.04;54.17;100173.92;135567;1280;22502;-68
2023/05/08 06:32:45;;;;;;;;;;;;;;;14.03;50.37;100173.94;135577;1280;22512;-67
2023/05/08 06:35:48;;;;;;;;;;;;;;;14.21;52.23;100180.05;135580;1280;22504;-66
2023/05/08 06:38:59;;;;;;;;;;;;;;;14.69;53.05;100181.27;135570;1280;22538;-67
2023/05/08 06:42:03;;;;;;;;;;;;;;;15.01;53.11;100184.23;135598;1280;22545;-64
2023/05/08 06:45:07;;;;;;;;;;;;;;;15.15;51.92;100183.56;135586;1280;22524;-66
2023/05/08 06:48:11;;;;;;;;;;;;;;;15.09;48.94;100182.16;135564;1280;22495;-68
2023/05/08 06:51:15;;;;;;;;;;;;;;;15.06;50.44;100187.99;135569;1280;22501;-69
2023/05/08 06:54:18;;;;;;;;;;;;;;;15.23;51.64;100185.08;135626;1280;22526;-63
2023/05/08 06:57:23;;;;;;;;;;;;;;;15.72;49.95;100186.60;135628;1280;23892;-64
2023/05/08 07:00:26;;;;;;;;;;;;;;;15.87;47.50;100186.18;135612;1280;24188;-66
2023/05/08 07:03:30;;;;;;;;;;;;;;;15.90;48.14;100190.06;135576;1280;22518;-63
2023/05/08 07:06:34;;;;;;;;;;;;;;;15.86;48.32;100194.92;135475;1280;22496;-71
2023/05/08 07:09:38;;;;;;;;;;;;;;;15.77;50.41;100198.63;135633;1280;22527;-66
2023/05/08 07:12:41;;;;;;;;;;;;;;;15.98;48.87;100198.04;135617;1280;22498;-69
2023/05/08 07:15:45;;;;;;;;;;;;;;;16.29;49.05;100193.14;135622;1280;22540;-67
2023/05/08 07:18:48;;;;;;;;;;;;;;;16.26;45.46;100195.28;135629;1280;22500;-65
2023/05/08 07:21:51;;;;;;;;;;;;;;;16.13;46.91;100198.58;135405;1262;22530;-69
2023/05/08 07:24:56;;;;;;;;;;;;;;;16.61;48.10;100196.06;135601;1278;22512;-69
2023/05/08 07:27:59;;;;;;;;;;;;;;;16.85;46.46;100201.61;135601;1280;24340;-66
2023/05/08 07:31:02;;;;;;;;;;;;;;;16.86;44.38;100197.30;135573;1280;25384;-66
2023/05/08 07:34:06;;;;;;;;;;;;;;;16.81;45.88;100206.41;135632;1280;22519;-67
2023/05/08 07:37:09;;;;;;;;;;;;;;;17.06;44.49;100203.28;135586;1262;22531;-65
2023/05/08 07:40:11;;;;;;;;;;;;;;;16.90;42.49;100196.17;135335;1280;23268;-66
2023/05/08 07:43:15;;;;;;;;;;;;;;;16.99;43.67;100203.73;135666;1280;22502;-70
2023/05/08 07:46:18;;;;;;;;;;;;;;;16.74;41.95;100196.29;135601;1280;22518;-65
2023/05/08 07:49:20;;;;;;;;;;;;;;;16.58;42.89;100198.00;135587;1280;22521;-66
2023/05/08 07:52:23;;;;;;;;;;;;;;;16.83;44.12;100191.48;135578;1280;24189;-66
2023/05/08 07:55:26;;;;;;;;;;;;;;;17.17;42.98;100192.09;135579;1280;22519;-69
2023/05/08 07:58:29;;;;;;;;;;;;;;;17.02;42.03;100189.90;135530;1280;23074;-66
2023/05/08 08:01:33;;;;;;;;;;;;;;;17.15;41.48;100186.60;135670;1280;24267;-68
2023/05/08 08:04:35;;;;;;;;;;;;;;;17.23;40.24;100185.87;135583;1280;22507;-70
2023/05/08 08:07:39;;;;;;;;;;;;;;;17.07;40.18;100186.42;135650;1280;22498;-66
2023/05/08 08:10:41;;;;;;;;;;;;;;;17.20;40.66;100187.61;135632;1280;22504;-67
2023/05/08 08:13:44;;;;;;;;;;;;;;;17.22;40.29;100189.11;135648;1280;25389;-67
2023/05/08 08:16:48;;;;;;;;;;;;;;;17.11;41.53;100185.04;135632;1280;22732;-67
2023/05/08 08:19:50;;;;;;;;;;;;;;;17.22;40.68;100180.48;135596;1261;22516;-68
2023/05/08 08:22:53;;;;;;;;;;;;;;;17.01;40.64;100183.97;135574;1262;22516;-68
2023/05/08 08:25:57;;;;;;;;;;;;;;;17.28;40.72;100188.21;135578;1280;22495;-71
2023/05/08 08:29:00;;;;;;;;;;;;;;;17.75;40.21;100183.54;135599;1280;22562;-66
2023/05/08 08:32:03;;;;;;;;;;;;;;;17.87;40.08;100181.53;135621;1280;22496;-67
2023/05/08 08:35:06;;;;;;;;;;;;;;;18.27;40.21;100182.77;135625;1280;22512;-68
2023/05/08 08:38:10;;;;;;;;;;;;;;;18.72;38.74;100182.36;135618;1280;22497;-69
2023/05/08 08:41:13;;;;;;;;;;;;;;;18.83;38.63;100183.56;135632;1280;22524;-64
2023/05/08 08:44:18;;;;;;;;;;;;;;;18.87;37.13;100180.19;135584;1280;22509;-67
2023/05/08 08:47:22;;;;;;;;;;;;;;;19.03;37.96;100188.30;135635;1280;22504;-65
2023/05/08 08:50:26;;;;;;;;;;;;;;;19.28;37.73;100179.16;135609;1280;22693;-67
2023/05/08 08:53:31;;;;;;;;;;;;;;;19.02;35.94;100163.74;135544;1280;22508;-65
2023/05/08 08:56:33;;;;;;;;;;;;;;;19.14;38.18;100180.02;135625;1280;22514;-68
2023/05/08 08:59:37;;;;;;;;;;;;;;;19.04;36.17;100178.09;135516;1280;22515;-70
2023/05/08 09:02:39;;;;;;;;;;;;;;;18.46;36.35;100179.11;135646;1280;22532;-67
2023/05/08 09:05:42;;;;;;;;;;;;;;;18.74;37.43;100176.05;135617;1280;22518;-70
2023/05/08 09:08:45;;;;;;;;;;;;;;;19.06;36.71;100185.97;135513;1280;22509;-71
2023/05/08 09:11:48;;;;;;;;;;;;;;;19.46;37.02;100179.05;135417;1280;22518;-68
2023/05/08 09:14:51;;;;;;;;;;;;;;;19.09;35.51;100183.21;135610;1261;22524;-68
2023/05/08 09:17:55;;;;;;;;;;;;;;;19.03;36.34;100183.69;135614;1280;22511;-70
2023/05/08 09:20:59;;;;;;;;;;;;;;;18.65;35.70;100182.54;135586;1280;22515;-68
2023/05/08 09:24:02;;;;;;;;;;;;;;;18.25;36.63;100184.50;135613;1280;22520;-67
2023/05/08 09:27:05;;;;;;;;;;;;;;;18.68;36.32;100171.33;135481;1280;25597;-73
2023/05/08 09:30:09;;;;;;;;;;;;;;;19.22;36.89;100176.08;135638;1280;22520;-66
2023/05/08 09:33:11;;;;;;;;;;;;;;;20.14;36.71;100176.77;135289;1280;22616;-70
2023/05/08 09:36:14;;;;;;;;;;;;;;;20.41;34.80;100173.77;135340;1281;22524;-68
2023/05/08 09:39:17;;;;;;;;;;;;;;;20.75;35.63;100170.16;135335;1281;22530;-66
2023/05/08 09:42:22;;;;;;;;;;;;;;;20.43;33.78;100172.90;135322;1281;22495;-65
2023/05/08 09:45:26;;;;;;;;;;;;;;;20.02;34.88;100178.96;135318;1281;22612;-68
2023/05/08 09:48:30;;;;;;;;;;;;;;;20.45;35.13;100173.27;135354;1281;22517;-67
2023/05/08 09:51:37;;;;;;;;;;;;;;;20.03;34.88;100177.29;135331;1281;22520;-71
2023/05/08 09:54:40;;;;;;;;;;;;;;;20.00;35.24;100177.17;135305;1281;25438;-67
2023/05/08 09:57:43;;;;;;;;;;;;;;;19.72;34.73;100178.11;135307;1281;22620;-68
2023/05/08 10:00:46;;;;;;;;;;;;;;;19.26;34.08;100175.88;135204;1281;22505;-67
2023/05/08 10:03:50;;;;;;;;;;;;;;;18.50;34.26;100178.30;135331;1281;25202;-69
2023/05/08 10:06:55;;;;;;;;;;;;;;;18.32;36.13;100174.61;135312;1281;22619;-70
2023/05/08 10:09:59;;;;;;;;;;;;;;;18.92;35.75;100173.81;135340;1281;22497;-69
2023/05/08 10:13:03;;;;;;;;;;;;;;;19.65;35.42;100171.00;135339;1281;22519;-67
2023/05/08 10:16:07;;;;;;;;;;;;;;;20.47;34.97;100161.68;135286;1281;22516;-73
2023/05/08 10:19:10;;;;;;;;;;;;;;;20.90;33.91;100161.25;135294;1281;22515;-68
2023/05/08 10:22:14;;;;;;;;;;;;;;;21.51;34.66;100161.14;135342;1281;22513;-69
2023/05/08 10:25:18;;;;;;;;;;;;;;;21.94;33.76;100162.77;135268;1280;22507;-70
2023/05/08 10:28:21;;;;;;;;;;;;;;;21.99;32.33;100165.90;135220;1280;22517;-66
2023/05/08 10:31:25;;;;;;;;;;;;;;;22.05;33.35;100165.77;135319;1281;24320;-67
2023/05/08 10:34:28;;;;;;;;;;;;;;;22.34;33.33;100168.05;135306;1281;22503;-68
2023/05/08 10:37:36;;;;;;;;;;;;;;;22.52;33.34;100169.67;135339;1281;22537;-70
2023/05/08 10:40:39;;;;;;;;;;;;;;;22.61;30.80;100160.27;135364;1281;24358;-68
2023/05/08 10:43:43;;;;;;;;;;;;;;;22.80;31.35;100161.62;135343;1281;22554;-67
2023/05/08 10:46:47;;;;;;;;;;;;;;;22.46;30.96;100155.75;135336;1281;22659;-71
2023/05/08 10:49:52;;;;;;;;;;;;;;;21.98;30.57;100153.02;135286;1281;25337;-69
2023/05/08 10:52:55;;;;;;;;;;;;;;;20.87;31.22;100165.88;135296;1281;22514;-72
2023/05/08 10:56:01;;;;;;;;;;;;;;;20.29;32.13;100161.73;135320;1281;25393;-68
2023/05/08 10:59:04;;;;;;;;;;;;;;;19.67;31.95;100159.35;135309;1281;22494;-69
2023/05/08 11:02:10;;;;;;;;;;;;;;;19.42;32.20;100158.02;135357;1281;22501;-68
2023/05/08 11:05:14;;;;;;;;;;;;;;;19.10;32.27;100162.41;135345;1281;22523;-68
2023/05/08 11:08:17;;;;;;;;;;;;;;;18.79;33.18;100160.98;135328;1281;22505;-65
2023/05/08 11:11:22;;;;;;;;;;;;;;;18.39;33.53;100160.46;135213;1281;22529;-65
2023/05/08 11:14:25;;;;;;;;;;;;;;;18.49;33.87;100157.27;135319;1281;22682;-68
2023/05/08 11:17:28;;;;;;;;;;;;;;;18.78;33.72;100157.33;135356;1281;22532;-65
2023/05/08 11:20:32;;;;;;;;;;;;;;;18.90;33.68;100160.65;135312;1281;22540;-68
2023/05/08 11:23:35;;;;;;;;;;;;;;;19.48;34.29;100150.33;135331;1281;22500;-69
2023/05/08 11:26:39;;;;;;;;;;;;;;;20.29;32.65;100143.41;135311;1281;22534;-68
2023/05/08 11:29:43;;;;;;;;;;;;;;;20.78;31.70;100127.78;135328;1279;22566;-66
2023/05/08 11:32:47;;;;;;;;;;;;;;;21.17;31.85;100131.39;135307;1281;25418;-68
2023/05/08 11:35:50;;;;;;;;;;;;;;;21.85;32.65;100130.08;135320;1281;22504;-69
2023/05/08 11:38:54;;;;;;;;;;;;;;;22.57;32.32;100130.18;135239;1281;24239;-70
2023/05/08 11:41:57;;;;;;;;;;;;;;;22.38;30.55;100122.57;135301;1281;22507;-70
2023/05/08 11:45:00;;;;;;;;;;;;;;;21.93;31.17;100122.45;135321;1281;22515;-66
2023/05/08 11:48:04;;;;;;;;;;;;;;;21.57;30.64;100126.45;135308;1281;22547;-68
2023/05/08 11:51:08;;;;;;;;;;;;;;;21.11;30.94;100123.05;135309;1281;22505;-69
2023/05/08 11:54:12;;;;;;;;;;;;;;;21.14;31.39;100121.71;135303;1281;22521;-66
2023/05/08 11:57:15;;;;;;;;;;;;;;;21.58;31.75;100126.34;135334;1281;22552;-66
2023/05/08 12:00:19;;;;;;;;;;;;;;;21.97;30.96;100123.52;135345;1281;22609;-66
2023/05/08 12:03:21;;;;;;;;;;;;;;;21.40;30.66;100124.90;135351;1281;22523;-65
2023/05/08 12:06:26;;;;;;;;;;;;;;;21.13;30.84;100126.09;131244;1281;5364296;-66
2023/05/08 12:09:29;;;;;;;;;;;;;;;21.28;30.68;100128.91;135353;1281;22509;-66
2023/05/08 12:12:32;;;;;;;;;;;;;;;21.84;31.33;100131.07;135330;1281;22534;-65
2023/05/08 12:15:36;;;;;;;;;;;;;;;22.05;30.90;100129.19;135355;1281;22565;-66
2023/05/08 12:18:40;;;;;;;;;;;;;;;21.93;30.17;100125.70;135369;1281;22510;-66
2023/05/08 12:21:44;;;;;;;;;;;;;;;21.58;31.03;100118.40;135313;1281;22507;-69
2023/05/08 12:24:47;;;;;;;;;;;;;;;21.28;30.86;100127.50;135317;1281;22514;-70
2023/05/08 12:27:49;;;;;;;;;;;;;;;20.56;30.32;100129.16;135336;1281;22529;-67
2023/05/08 12:30:52;;;;;;;;;;;;;;;19.70;31.11;100134.07;135303;1281;22531;-66
2023/05/08 12:33:56;;;;;;;;;;;;;;;19.24;31.81;100136.39;135258;1276;22499;-69
2023/05/08 12:36:59;;;;;;;;;;;;;;;19.67;32.91;100130.73;135347;1281;22596;-67
2023/05/08 12:40:02;;;;;;;;;;;;;;;20.01;31.64;100123.45;135312;1281;25327;-68
2023/05/08 12:43:05;;;;;;;;;;;;;;;19.55;31.15;100125.81;135326;1281;22563;-70
2023/05/08 12:46:08;;;;;;;;;;;;;;;19.12;31.66;100125.77;135259;1281;22514;-68
2023/05/08 12:49:11;;;;;;;;;;;;;;;18.53;31.93;100123.88;135280;1281;22579;-68
2023/05/08 12:52:14;;;;;;;;;;;;;;;19.26;33.72;100126.45;135339;1262;22523;-64
2023/05/08 12:55:17;;;;;;;;;;;;;;;20.47;32.15;100118.16;135351;1262;22503;-65
2023/05/08 12:58:21;;;;;;;;;;;;;;;21.52;30.62;100101.95;135320;1281;22518;-67
2023/05/08 13:01:24;;;;;;;;;;;;;;;21.72;29.05;100095.13;135293;1281;22543;-68
2023/05/08 13:04:26;;;;;;;;;;;;;;;21.13;29.58;100101.02;135293;1281;22512;-66
2023/05/08 13:07:29;;;;;;;;;;;;;;;20.97;30.17;100104.48;135331;1281;24504;-67
2023/05/08 13:10:33;;;;;;;;;;;;;;;20.75;29.63;100104.21;135279;1270;22514;-66
2023/05/08 13:13:36;;;;;;;;;;;;;;;20.61;29.94;100102.45;135336;1281;22518;-66
2023/05/08 13:16:38;;;;;;;;;;;;;;;19.94;30.17;100097.23;135323;1281;22497;-66
2023/05/08 13:19:41;;;;;;;;;;;;;;;19.17;31.21;100106.77;135372;1281;25396;-64
2023/05/08 13:22:48;;;;;;;;;;;;;;;18.77;31.96;100106.91;135302;1281;22505;-67
2023/05/08 13:25:53;;;;;;;;;;;;;;;18.56;32.63;100101.04;135272;1281;22898;-66
2023/05/08 13:28:57;;;;;;;;;;;;;;;18.80;32.10;100100.47;135372;1281;22535;-68
2023/05/08 13:32:00;;;;;;;;;;;;;;;19.05;32.63;100097.74;135330;1281;22506;-66
2023/05/08 13:35:04;;;;;;;;;;;;;;;20.00;33.23;100095.31;135338;1281;22505;-66
2023/05/08 13:38:07;;;;;;;;;;;;;;;21.32;32.07;100086.27;135280;1281;22534;-69
2023/05/08 13:41:11;;;;;;;;;;;;;;;21.60;30.94;100086.33;135315;1281;22513;-67
2023/05/08 13:44:15;;;;;;;;;;;;;;;21.27;30.51;100086.46;135348;1281;26113;-69
2023/05/08 13:47:19;;;;;;;;;;;;;;;20.98;30.22;100086.06;135317;1281;22514;-72
2023/05/08 13:50:23;;;;;;;;;;;;;;;21.11;30.84;100080.95;135320;1281;22522;-68
2023/05/08 13:53:26;;;;;;;;;;;;;;;21.77;31.08;100072.75;135316;1281;22554;-70
2023/05/08 13:56:30;;;;;;;;;;;;;;;22.52;30.34;100071.08;135359;1281;22520;-69
2023/05/08 13:59:33;;;;;;;;;;;;;;;22.24;27.85;100066.23;135377;1281;22510;-67
2023/05/08 14:02:37;;;;;;;;;;;;;;;22.10;29.42;100073.19;135245;1281;22504;-66
2023/05/08 14:05:41;;;;;;;;;;;;;;;22.64;29.40;100077.25;135383;1281;22512;-69
2023/05/08 14:08:45;;;;;;;;;;;;;;;22.91;28.62;100072.50;135307;1281;24273;-67
2023/05/08 14:11:49;;;;;;;;;;;;;;;22.95;29.32;100075.12;135347;1281;22536;-69
2023/05/08 14:14:52;;;;;;;;;;;;;;;22.97;28.49;100073.02;135320;1281;22598;-66
2023/05/08 14:17:56;;;;;;;;;;;;;;;22.18;28.10;100073.18;135342;1281;22507;-67
2023/05/08 14:20:59;;;;;;;;;;;;;;;21.18;29.18;100071.61;135337;1281;22523;-69
2023/05/08 14:24:03;;;;;;;;;;;;;;;20.29;29.33;100080.07;135228;1281;22515;-68
2023/05/08 14:27:06;;;;;;;;;;;;;;;19.67;29.60;100084.99;135340;1281;22538;-71
2023/05/08 14:30:10;;;;;;;;;;;;;;;19.25;30.08;100080.98;135294;1281;22523;-70
2023/05/08 14:33:14;;;;;;;;;;;;;;;19.15;30.85;100085.31;135282;1281;22497;-68
2023/05/08 14:36:17;;;;;;;;;;;;;;;19.38;31.02;100077.09;135311;1281;22515;-66
2023/05/08 14:39:21;;;;;;;;;;;;;;;20.06;31.08;100074.45;135340;1281;22511;-65
2023/05/08 14:42:25;;;;;;;;;;;;;;;20.35;30.09;100076.55;135327;1281;25312;-64
2023/05/08 14:45:28;;;;;;;;;;;;;;;20.35;30.19;100080.79;135311;1281;22492;-72
2023/05/08 14:48:35;;;;;;;;;;;;;;;20.27;30.32;100083.39;135323;1281;22586;-68
2023/05/08 14:51:38;;;;;;;;;;;;;;;19.71;29.43;100081.86;135316;1281;25269;-67
2023/05/08 14:54:42;;;;;;;;;;;;;;;19.26;30.73;100088.35;135328;1281;22549;-65
2023/05/08 14:57:45;;;;;;;;;;;;;;;19.08;31.03;100096.27;135327;1281;22515;-69
2023/05/08 15:00:48;;;;;;;;;;;;;;;19.82;31.49;100091.08;135322;1281;22502;-71
2023/05/08 15:03:53;;;;;;;;;;;;;;;20.34;29.83;100085.69;135282;1281;22977;-68
2023/05/08 15:06:56;;;;;;;;;;;;;;;20.51;29.78;100083.06;135344;1281;24349;-68
2023/05/08 15:10:00;;;;;;;;;;;;;;;20.77;29.72;100084.80;135331;1281;22528;-70
2023/05/08 15:13:03;;;;;;;;;;;;;;;20.40;29.03;100088.58;135224;1281;22582;-68
2023/05/08 15:16:06;;;;;;;;;;;;;;;20.64;28.90;100086.56;135305;1281;22498;-68
2023/05/08 15:19:09;;;;;;;;;;;;;;;20.93;28.27;100079.98;135339;1281;22511;-68
2023/05/08 15:22:12;;;;;;;;;;;;;;;20.22;28.80;100085.27;135350;1281;22514;-69
2023/05/08 15:25:16;;;;;;;;;;;;;;;19.84;29.62;100085.26;135339;1281;22616;-70
2023/05/08 15:28:20;;;;;;;;;;;;;;;21.66;29.03;100079.58;135347;1281;22560;-72
2023/05/08 15:31:23;;;;;;;;;;;;;;;24.58;27.29;100071.74;135287;1281;22528;-65
2023/05/08 15:34:27;;;;;;;;;;;;;;;27.08;25.49;100062.04;135207;1281;22525;-66
2023/05/08 15:37:30;;;;;;;;;;;;;;;29.32;25.08;100055.25;135232;1281;25307;-69